sensor_id;sensor_type;location;lat;lon;timestamp;temperature;humidity
2657;DHT22;1338;48.176;11.792;2023-02-28T00:01:27;-2.60;1.00
2657;DHT22;1338;48.176;11.792;2023-02-28T00:03:56;-2.30;1.00
2657;DHT22;1338;48.176;11.792;2023-02-28T00:06:24;-2.50;1.00
2657;DHT22;1338;48.176;11.792;2023-02-28T00:08:52;-2.70;1.00
2657;DHT22;1338;48.176;11.792;2023-02-28T00:11:21;-2.10;1.00
2657;DHT22;1338;48.176;11.792;2023-02-28T00:13:49;-2.40;1.00
2657;DHT22;1338;48.176;11.792;2023-02-28T00:16:20;-2.40;1.00
2657;DHT22;1338;48.176;11.792;2023-02-28T00:18:49;-2.50;1.00
2657;DHT22;1338;48.176;11.792;2023-02-28T00:21:19;-2.80;1.00
2657;DHT22;1338;48.176;11.792;2023-02-28T00:23:47;-2.70;1.00
2657;DHT22;1338;48.176;11.792;2023-02-28T00:26:15;-2.80;1.00
2657;DHT22;1338;48.176;11.792;2023-02-28T00:28:48;-2.70;1.00
2657;DHT22;1338;48.176;11.792;2023-02-28T00:31:16;-2.70;1.00
2657;DHT22;1338;48.176;11.792;2023-02-28T00:33:44;-3.00;1.00
2657;DHT22;1338;48.176;11.792;2023-02-28T00:36:14;-2.90;8.00
2657;DHT22;1338;48.176;11.792;2023-02-28T00:38:42;-2.80;17.30
2657;DHT22;1338;48.176;11.792;2023-02-28T00:41:10;-2.50;9.30
2657;DHT22;1338;48.176;11.792;2023-02-28T00:43:39;-2.90;1.00
2657;DHT22;1338;48.176;11.792;2023-02-28T00:46:08;-2.80;8.40
2657;DHT22;1338;48.176;11.792;2023-02-28T00:48:36;-2.80;1.00
2657;DHT22;1338;48.176;11.792;2023-02-28T00:51:05;-2.70;4.60
2657;DHT22;1338;48.176;11.792;2023-02-28T00:53:33;-3.10;5.20
2657;DHT22;1338;48.176;11.792;2023-02-28T00:56:01;-3.00;26.70
2657;DHT22;1338;48.176;11.792;2023-02-28T00:58:30;-3.30;12.60
2657;DHT22;1338;48.176;11.792;2023-02-28T01:01:00;-3.30;31.20
2657;DHT22;1338;48.176;11.792;2023-02-28T01:03:30;-2.60;39.70
2657;DHT22;1338;48.176;11.792;2023-02-28T01:05:58;-2.70;21.60
2657;DHT22;1338;48.176;11.792;2023-02-28T01:08:26;-2.90;11.10
2657;DHT22;1338;48.176;11.792;2023-02-28T01:10:54;-2.70;18.10
2657;DHT22;1338;48.176;11.792;2023-02-28T01:13:23;-2.80;13.60
2657;DHT22;1338;48.176;11.792;2023-02-28T01:15:54;-3.00;13.30
2657;DHT22;1338;48.176;11.792;2023-02-28T01:18:23;-3.00;30.00
2657;DHT22;1338;48.176;11.792;2023-02-28T01:20:53;-2.80;15.50
2657;DHT22;1338;48.176;11.792;2023-02-28T01:23:23;-3.30;6.60
2657;DHT22;1338;48.176;11.792;2023-02-28T01:25:51;-3.50;29.90
2657;DHT22;1338;48.176;11.792;2023-02-28T01:28:19;-3.70;46.30
2657;DHT22;1338;48.176;11.792;2023-02-28T01:30:49;-3.40;94.50
2657;DHT22;1338;48.176;11.792;2023-02-28T01:33:18;-3.20;95.20
2657;DHT22;1338;48.176;11.792;2023-02-28T01:35:46;-2.60;93.40
2657;DHT22;1338;48.176;11.792;2023-02-28T01:38:16;-2.80;71.80
2657;DHT22;1338;48.176;11.792;2023-02-28T01:40:49;-2.90;55.00
2657;DHT22;1338;48.176;11.792;2023-02-28T01:43:22;-3.10;52.10
2657;DHT22;1338;48.176;11.792;2023-02-28T01:45:51;-3.40;50.20
2657;DHT22;1338;48.176;11.792;2023-02-28T01:48:22;-2.90;97.20
2657;DHT22;1338;48.176;11.792;2023-02-28T01:50:55;-3.50;54.80
2657;DHT22;1338;48.176;11.792;2023-02-28T01:53:32;-3.20;91.00
2657;DHT22;1338;48.176;11.792;2023-02-28T01:56:04;-2.90;87.10
2657;DHT22;1338;48.176;11.792;2023-02-28T01:58:33;-3.30;64.60
2657;DHT22;1338;48.176;11.792;2023-02-28T02:01:02;-2.80;99.90
2657;DHT22;1338;48.176;11.792;2023-02-28T02:03:32;-3.10;77.00
2657;DHT22;1338;48.176;11.792;2023-02-28T02:06:02;-3.20;90.60
2657;DHT22;1338;48.176;11.792;2023-02-28T02:08:31;-3.60;91.00
2657;DHT22;1338;48.176;11.792;2023-02-28T02:11:00;-3.40;98.70
2657;DHT22;1338;48.176;11.792;2023-02-28T02:13:38;-3.20;99.90
2657;DHT22;1338;48.176;11.792;2023-02-28T02:16:22;-3.60;99.90
2657;DHT22;1338;48.176;11.792;2023-02-28T02:18:55;-3.40;99.90
2657;DHT22;1338;48.176;11.792;2023-02-28T02:22:00;-3.00;99.90
2657;DHT22;1338;48.176;11.792;2023-02-28T02:24:53;-2.80;99.90
2657;DHT22;1338;48.176;11.792;2023-02-28T02:27:39;-3.60;95.50
2657;DHT22;1338;48.176;11.792;2023-02-28T02:33:30;-3.90;99.90
2657;DHT22;1338;48.176;11.792;2023-02-28T02:36:12;-3.70;99.90
2657;DHT22;1338;48.176;11.792;2023-02-28T02:38:47;-3.80;99.90
2657;DHT22;1338;48.176;11.792;2023-02-28T02:41:22;-4.10;99.90
2657;DHT22;1338;48.176;11.792;2023-02-28T02:43:54;-3.50;99.90
2657;DHT22;1338;48.176;11.792;2023-02-28T02:46:28;-3.40;99.90
2657;DHT22;1338;48.176;11.792;2023-02-28T02:49:00;-3.60;99.90
2657;DHT22;1338;48.176;11.792;2023-02-28T02:51:31;-3.90;99.90
2657;DHT22;1338;48.176;11.792;2023-02-28T02:54:05;-3.90;99.90
2657;DHT22;1338;48.176;11.792;2023-02-28T02:56:35;-4.00;99.90
2657;DHT22;1338;48.176;11.792;2023-02-28T02:59:07;-3.50;99.90
2657;DHT22;1338;48.176;11.792;2023-02-28T03:01:37;-3.00;99.90
2657;DHT22;1338;48.176;11.792;2023-02-28T03:04:10;-3.00;99.90
2657;DHT22;1338;48.176;11.792;2023-02-28T03:06:40;-3.50;99.90
2657;DHT22;1338;48.176;11.792;2023-02-28T03:09:08;-3.00;99.90
2657;DHT22;1338;48.176;11.792;2023-02-28T03:11:39;-3.40;99.90
2657;DHT22;1338;48.176;11.792;2023-02-28T03:14:16;-3.50;99.90
2657;DHT22;1338;48.176;11.792;2023-02-28T03:17:10;-3.80;99.90
2657;DHT22;1338;48.176;11.792;2023-02-28T03:19:49;-3.50;99.90
2657;DHT22;1338;48.176;11.792;2023-02-28T03:22:38;-3.60;99.90
2657;DHT22;1338;48.176;11.792;2023-02-28T03:25:10;-3.70;99.90
2657;DHT22;1338;48.176;11.792;2023-02-28T03:27:41;-3.50;99.90
2657;DHT22;1338;48.176;11.792;2023-02-28T03:30:14;-3.60;99.90
2657;DHT22;1338;48.176;11.792;2023-02-28T03:32:53;-2.90;99.90
2657;DHT22;1338;48.176;11.792;2023-02-28T03:35:24;-3.40;99.90
2657;DHT22;1338;48.176;11.792;2023-02-28T03:37:58;-3.40;99.90
2657;DHT22;1338;48.176;11.792;2023-02-28T03:40:32;-3.90;99.90
2657;DHT22;1338;48.176;11.792;2023-02-28T03:43:09;-3.90;99.90
2657;DHT22;1338;48.176;11.792;2023-02-28T03:45:41;-3.70;99.90
2657;DHT22;1338;48.176;11.792;2023-02-28T03:48:13;-3.80;99.90
2657;DHT22;1338;48.176;11.792;2023-02-28T03:50:44;-3.80;99.90
2657;DHT22;1338;48.176;11.792;2023-02-28T03:53:17;-3.80;99.90
2657;DHT22;1338;48.176;11.792;2023-02-28T03:55:49;-3.90;99.90
2657;DHT22;1338;48.176;11.792;2023-02-28T03:58:23;-3.50;99.90
2657;DHT22;1338;48.176;11.792;2023-02-28T04:00:57;-3.70;99.90
2657;DHT22;1338;48.176;11.792;2023-02-28T04:03:26;-3.70;99.90
2657;DHT22;1338;48.176;11.792;2023-02-28T04:05:55;-3.80;99.90
2657;DHT22;1338;48.176;11.792;2023-02-28T04:08:26;-3.90;99.90
2657;DHT22;1338;48.176;11.792;2023-02-28T04:10:57;-4.10;99.90
2657;DHT22;1338;48.176;11.792;2023-02-28T04:13:26;-4.00;99.90
2657;DHT22;1338;48.176;11.792;2023-02-28T04:15:54;-3.80;99.90
2657;DHT22;1338;48.176;11.792;2023-02-28T04:18:22;-3.90;99.90
2657;DHT22;1338;48.176;11.792;2023-02-28T04:20:50;-3.60;99.90
2657;DHT22;1338;48.176;11.792;2023-02-28T04:23:18;-3.70;99.90
2657;DHT22;1338;48.176;11.792;2023-02-28T04:25:47;-3.40;99.90
2657;DHT22;1338;48.176;11.792;2023-02-28T04:28:16;-3.40;99.90
2657;DHT22;1338;48.176;11.792;2023-02-28T04:30:44;-3.60;99.90
2657;DHT22;1338;48.176;11.792;2023-02-28T04:33:12;-3.80;99.90
2657;DHT22;1338;48.176;11.792;2023-02-28T04:35:40;-3.40;99.90
2657;DHT22;1338;48.176;11.792;2023-02-28T04:38:08;-3.70;99.90
2657;DHT22;1338;48.176;11.792;2023-02-28T04:40:36;-3.80;99.90
2657;DHT22;1338;48.176;11.792;2023-02-28T04:43:05;-3.30;99.90
2657;DHT22;1338;48.176;11.792;2023-02-28T04:45:34;-3.20;99.90
2657;DHT22;1338;48.176;11.792;2023-02-28T04:48:03;-3.10;99.90
2657;DHT22;1338;48.176;11.792;2023-02-28T04:50:31;-3.10;99.90
2657;DHT22;1338;48.176;11.792;2023-02-28T04:52:58;-3.00;99.90
2657;DHT22;1338;48.176;11.792;2023-02-28T04:55:27;-2.30;99.90
2657;DHT22;1338;48.176;11.792;2023-02-28T04:57:55;-2.40;99.90
2657;DHT22;1338;48.176;11.792;2023-02-28T05:00:24;-3.00;99.90
2657;DHT22;1338;48.176;11.792;2023-02-28T05:02:52;-3.00;99.90
2657;DHT22;1338;48.176;11.792;2023-02-28T05:05:20;-3.00;99.90
2657;DHT22;1338;48.176;11.792;2023-02-28T05:07:48;-2.70;99.90
2657;DHT22;1338;48.176;11.792;2023-02-28T05:10:17;-2.80;99.90
2657;DHT22;1338;48.176;11.792;2023-02-28T05:12:45;-2.80;99.90
2657;DHT22;1338;48.176;11.792;2023-02-28T05:15:15;-3.00;99.90
2657;DHT22;1338;48.176;11.792;2023-02-28T05:17:45;-2.50;99.90
2657;DHT22;1338;48.176;11.792;2023-02-28T05:20:13;-2.40;99.90
2657;DHT22;1338;48.176;11.792;2023-02-28T05:22:42;-2.10;99.90
2657;DHT22;1338;48.176;11.792;2023-02-28T05:25:13;-2.40;99.90
2657;DHT22;1338;48.176;11.792;2023-02-28T05:27:42;-2.30;99.90
2657;DHT22;1338;48.176;11.792;2023-02-28T05:30:11;-2.20;99.90
2657;DHT22;1338;48.176;11.792;2023-02-28T05:32:41;-2.20;99.90
2657;DHT22;1338;48.176;11.792;2023-02-28T05:35:11;-2.20;99.90
2657;DHT22;1338;48.176;11.792;2023-02-28T05:37:39;-2.40;99.90
2657;DHT22;1338;48.176;11.792;2023-02-28T05:40:09;-2.50;99.90
2657;DHT22;1338;48.176;11.792;2023-02-28T05:42:38;-2.50;99.90
2657;DHT22;1338;48.176;11.792;2023-02-28T05:45:07;-2.10;99.90
2657;DHT22;1338;48.176;11.792;2023-02-28T05:47:36;-2.30;99.90
2657;DHT22;1338;48.176;11.792;2023-02-28T05:50:05;-2.00;99.90
2657;DHT22;1338;48.176;11.792;2023-02-28T05:52:34;-2.00;99.90
2657;DHT22;1338;48.176;11.792;2023-02-28T05:55:03;-1.80;99.90
2657;DHT22;1338;48.176;11.792;2023-02-28T05:57:31;-2.20;99.90
2657;DHT22;1338;48.176;11.792;2023-02-28T05:59:59;-2.00;99.90
2657;DHT22;1338;48.176;11.792;2023-02-28T06:02:38;-2.00;99.90
2657;DHT22;1338;48.176;11.792;2023-02-28T06:05:10;-2.40;99.90
2657;DHT22;1338;48.176;11.792;2023-02-28T06:07:43;-2.20;99.90
2657;DHT22;1338;48.176;11.792;2023-02-28T06:10:12;-2.10;99.90
2657;DHT22;1338;48.176;11.792;2023-02-28T06:12:40;-2.10;99.90
2657;DHT22;1338;48.176;11.792;2023-02-28T06:15:12;-2.30;99.90
2657;DHT22;1338;48.176;11.792;2023-02-28T06:17:41;-2.30;99.90
2657;DHT22;1338;48.176;11.792;2023-02-28T06:20:11;-2.10;99.90
2657;DHT22;1338;48.176;11.792;2023-02-28T06:22:42;-2.10;99.90
2657;DHT22;1338;48.176;11.792;2023-02-28T06:25:11;-2.00;99.90
2657;DHT22;1338;48.176;11.792;2023-02-28T06:27:39;-1.80;99.90
2657;DHT22;1338;48.176;11.792;2023-02-28T06:30:09;-2.10;99.90
2657;DHT22;1338;48.176;11.792;2023-02-28T06:32:37;-2.10;99.90
2657;DHT22;1338;48.176;11.792;2023-02-28T06:35:06;-2.20;99.90
2657;DHT22;1338;48.176;11.792;2023-02-28T06:37:35;-2.20;99.90
2657;DHT22;1338;48.176;11.792;2023-02-28T06:40:10;-2.10;99.90
2657;DHT22;1338;48.176;11.792;2023-02-28T06:42:40;-2.30;99.90
2657;DHT22;1338;48.176;11.792;2023-02-28T06:45:09;0.20;1.00
2657;DHT22;1338;48.176;11.792;2023-02-28T06:47:38;-1.60;99.90
2657;DHT22;1338;48.176;11.792;2023-02-28T06:50:09;-1.90;99.90
2657;DHT22;1338;48.176;11.792;2023-02-28T06:52:37;-2.00;99.90
2657;DHT22;1338;48.176;11.792;2023-02-28T06:55:08;-2.00;99.90
2657;DHT22;1338;48.176;11.792;2023-02-28T06:57:37;-2.00;99.90
2657;DHT22;1338;48.176;11.792;2023-02-28T07:00:07;-2.00;99.90
2657;DHT22;1338;48.176;11.792;2023-02-28T07:02:36;-1.70;99.90
2657;DHT22;1338;48.176;11.792;2023-02-28T07:05:05;-1.80;99.90
2657;DHT22;1338;48.176;11.792;2023-02-28T07:07:33;-1.80;99.90
2657;DHT22;1338;48.176;11.792;2023-02-28T07:10:03;-1.90;99.90
2657;DHT22;1338;48.176;11.792;2023-02-28T07:12:33;-2.00;99.90
2657;DHT22;1338;48.176;11.792;2023-02-28T07:15:01;-2.00;99.90
2657;DHT22;1338;48.176;11.792;2023-02-28T07:17:30;-1.60;99.90
2657;DHT22;1338;48.176;11.792;2023-02-28T07:19:58;-1.90;99.90
2657;DHT22;1338;48.176;11.792;2023-02-28T07:22:26;-1.60;99.90
2657;DHT22;1338;48.176;11.792;2023-02-28T07:24:55;-1.70;99.90
2657;DHT22;1338;48.176;11.792;2023-02-28T07:27:23;-1.70;99.90
2657;DHT22;1338;48.176;11.792;2023-02-28T07:29:54;-1.70;99.90
2657;DHT22;1338;48.176;11.792;2023-02-28T07:32:22;-1.90;99.90
2657;DHT22;1338;48.176;11.792;2023-02-28T07:34:51;-1.90;99.90
2657;DHT22;1338;48.176;11.792;2023-02-28T07:37:19;-1.90;99.90
2657;DHT22;1338;48.176;11.792;2023-02-28T07:39:48;-1.80;99.90
2657;DHT22;1338;48.176;11.792;2023-02-28T07:42:16;-1.50;99.90
2657;DHT22;1338;48.176;11.792;2023-02-28T07:44:44;-1.70;99.90
2657;DHT22;1338;48.176;11.792;2023-02-28T07:47:14;-1.80;99.90
2657;DHT22;1338;48.176;11.792;2023-02-28T07:49:42;-1.50;99.90
2657;DHT22;1338;48.176;11.792;2023-02-28T07:52:11;-1.60;99.90
2657;DHT22;1338;48.176;11.792;2023-02-28T07:54:39;-1.80;99.90
2657;DHT22;1338;48.176;11.792;2023-02-28T07:57:07;-1.80;99.90
2657;DHT22;1338;48.176;11.792;2023-02-28T07:59:35;-1.70;99.90
2657;DHT22;1338;48.176;11.792;2023-02-28T08:02:04;-1.60;99.90
2657;DHT22;1338;48.176;11.792;2023-02-28T08:04:33;-1.50;99.90
2657;DHT22;1338;48.176;11.792;2023-02-28T08:07:02;-1.40;99.90
2657;DHT22;1338;48.176;11.792;2023-02-28T08:09:30;-1.30;99.90
2657;DHT22;1338;48.176;11.792;2023-02-28T08:11:58;-1.50;99.90
2657;DHT22;1338;48.176;11.792;2023-02-28T08:14:26;-1.30;99.90
2657;DHT22;1338;48.176;11.792;2023-02-28T08:16:56;-1.60;99.90
2657;DHT22;1338;48.176;11.792;2023-02-28T08:22:03;-1.30;99.90
2657;DHT22;1338;48.176;11.792;2023-02-28T08:24:35;-1.00;99.90
2657;DHT22;1338;48.176;11.792;2023-02-28T08:27:03;-1.30;97.70
2657;DHT22;1338;48.176;11.792;2023-02-28T08:29:32;-1.20;99.90
2657;DHT22;1338;48.176;11.792;2023-02-28T08:32:22;-1.10;99.80
2657;DHT22;1338;48.176;11.792;2023-02-28T08:37:39;-1.40;97.80
2657;DHT22;1338;48.176;11.792;2023-02-28T08:40:09;-0.90;99.90
2657;DHT22;1338;48.176;11.792;2023-02-28T08:42:40;-0.80;95.60
2657;DHT22;1338;48.176;11.792;2023-02-28T08:45:08;-0.80;92.20
2657;DHT22;1338;48.176;11.792;2023-02-28T08:47:36;-0.90;81.50
2657;DHT22;1338;48.176;11.792;2023-02-28T08:50:05;-0.80;91.30
2657;DHT22;1338;48.176;11.792;2023-02-28T08:52:33;-1.00;77.70
2657;DHT22;1338;48.176;11.792;2023-02-28T08:55:03;-0.80;87.00
2657;DHT22;1338;48.176;11.792;2023-02-28T08:57:32;-0.80;98.70
2657;DHT22;1338;48.176;11.792;2023-02-28T09:00:00;-0.30;99.90
2657;DHT22;1338;48.176;11.792;2023-02-28T09:02:31;-0.80;79.30
2657;DHT22;1338;48.176;11.792;2023-02-28T09:04:59;-0.60;74.20
2657;DHT22;1338;48.176;11.792;2023-02-28T09:07:27;-0.70;58.50
2657;DHT22;1338;48.176;11.792;2023-02-28T09:09:55;-0.60;61.20
2657;DHT22;1338;48.176;11.792;2023-02-28T09:12:27;-0.50;64.90
2657;DHT22;1338;48.176;11.792;2023-02-28T09:14:55;-0.80;60.50
2657;DHT22;1338;48.176;11.792;2023-02-28T09:17:23;-0.60;69.60
2657;DHT22;1338;48.176;11.792;2023-02-28T09:19:56;-0.50;63.00
2657;DHT22;1338;48.176;11.792;2023-02-28T09:22:25;-0.40;58.30
2657;DHT22;1338;48.176;11.792;2023-02-28T09:24:53;-0.20;58.60
2657;DHT22;1338;48.176;11.792;2023-02-28T09:27:21;-0.10;53.40
2657;DHT22;1338;48.176;11.792;2023-02-28T09:29:50;0.00;48.10
2657;DHT22;1338;48.176;11.792;2023-02-28T09:32:18;-0.20;37.60
2657;DHT22;1338;48.176;11.792;2023-02-28T09:34:47;-0.10;37.10
2657;DHT22;1338;48.176;11.792;2023-02-28T09:37:15;-0.30;27.30
2657;DHT22;1338;48.176;11.792;2023-02-28T09:39:43;-0.30;27.50
2657;DHT22;1338;48.176;11.792;2023-02-28T09:42:27;-0.20;33.90
2657;DHT22;1338;48.176;11.792;2023-02-28T09:45:01;-0.20;30.10
2657;DHT22;1338;48.176;11.792;2023-02-28T09:47:32;-0.10;26.80
2657;DHT22;1338;48.176;11.792;2023-02-28T09:50:08;0.10;18.00
2657;DHT22;1338;48.176;11.792;2023-02-28T09:52:40;0.00;14.60
2657;DHT22;1338;48.176;11.792;2023-02-28T09:55:22;0.20;7.80
2657;DHT22;1338;48.176;11.792;2023-02-28T09:57:52;0.30;5.60
2657;DHT22;1338;48.176;11.792;2023-02-28T10:00:24;0.20;4.70
2657;DHT22;1338;48.176;11.792;2023-02-28T10:03:06;0.50;1.80
2657;DHT22;1338;48.176;11.792;2023-02-28T10:05:43;0.50;4.00
2657;DHT22;1338;48.176;11.792;2023-02-28T10:08:21;0.50;1.00
2657;DHT22;1338;48.176;11.792;2023-02-28T10:10:54;0.70;1.00
2657;DHT22;1338;48.176;11.792;2023-02-28T10:13:28;1.00;1.00
2657;DHT22;1338;48.176;11.792;2023-02-28T10:16:05;0.80;1.00
2657;DHT22;1338;48.176;11.792;2023-02-28T10:18:41;1.00;1.00
2657;DHT22;1338;48.176;11.792;2023-02-28T10:21:17;1.20;1.00
2657;DHT22;1338;48.176;11.792;2023-02-28T10:23:47;1.20;1.00
2657;DHT22;1338;48.176;11.792;2023-02-28T10:26:17;1.10;1.00
2657;DHT22;1338;48.176;11.792;2023-02-28T10:28:45;1.00;1.00
2657;DHT22;1338;48.176;11.792;2023-02-28T10:31:18;1.00;1.00
2657;DHT22;1338;48.176;11.792;2023-02-28T10:33:47;1.10;1.00
2657;DHT22;1338;48.176;11.792;2023-02-28T10:36:16;0.90;1.00
2657;DHT22;1338;48.176;11.792;2023-02-28T10:38:46;0.90;1.00
2657;DHT22;1338;48.176;11.792;2023-02-28T10:41:16;0.90;1.00
2657;DHT22;1338;48.176;11.792;2023-02-28T10:44:13;1.20;1.00
2657;DHT22;1338;48.176;11.792;2023-02-28T10:46:43;1.40;1.00
2657;DHT22;1338;48.176;11.792;2023-02-28T10:49:14;1.40;1.00
2657;DHT22;1338;48.176;11.792;2023-02-28T10:51:45;1.30;1.00
2657;DHT22;1338;48.176;11.792;2023-02-28T10:54:19;1.20;1.00
2657;DHT22;1338;48.176;11.792;2023-02-28T10:57:06;1.10;1.00
2657;DHT22;1338;48.176;11.792;2023-02-28T10:59:35;1.20;1.00
2657;DHT22;1338;48.176;11.792;2023-02-28T11:02:30;1.20;1.00
2657;DHT22;1338;48.176;11.792;2023-02-28T11:05:00;1.40;1.00
2657;DHT22;1338;48.176;11.792;2023-02-28T11:07:28;1.80;1.00
2657;DHT22;1338;48.176;11.792;2023-02-28T11:10:20;2.00;1.00
2657;DHT22;1338;48.176;11.792;2023-02-28T11:12:48;2.30;1.00
2657;DHT22;1338;48.176;11.792;2023-02-28T11:15:23;2.60;1.00
2657;DHT22;1338;48.176;11.792;2023-02-28T11:17:57;2.60;1.00
2657;DHT22;1338;48.176;11.792;2023-02-28T11:20:28;2.60;1.00
2657;DHT22;1338;48.176;11.792;2023-02-28T11:22:58;2.60;1.00
2657;DHT22;1338;48.176;11.792;2023-02-28T11:25:30;3.00;1.00
2657;DHT22;1338;48.176;11.792;2023-02-28T11:28:01;2.80;1.00
2657;DHT22;1338;48.176;11.792;2023-02-28T11:30:36;3.00;1.00
2657;DHT22;1338;48.176;11.792;2023-02-28T11:33:26;3.40;1.00
2657;DHT22;1338;48.176;11.792;2023-02-28T11:35:58;2.90;1.00
2657;DHT22;1338;48.176;11.792;2023-02-28T11:38:27;3.10;1.00
2657;DHT22;1338;48.176;11.792;2023-02-28T11:41:08;2.70;1.00
2657;DHT22;1338;48.176;11.792;2023-02-28T11:43:51;2.50;1.00
2657;DHT22;1338;48.176;11.792;2023-02-28T11:46:30;2.80;1.00
2657;DHT22;1338;48.176;11.792;2023-02-28T11:49:14;3.00;1.00
2657;DHT22;1338;48.176;11.792;2023-02-28T11:51:48;3.10;1.00
2657;DHT22;1338;48.176;11.792;2023-02-28T11:54:34;3.10;1.00
2657;DHT22;1338;48.176;11.792;2023-02-28T11:57:12;3.70;1.00
2657;DHT22;1338;48.176;11.792;2023-02-28T11:59:52;4.20;1.00
2657;DHT22;1338;48.176;11.792;2023-02-28T12:02:26;4.40;1.00
2657;DHT22;1338;48.176;11.792;2023-02-28T12:05:20;4.20;66.80
2657;DHT22;1338;48.176;11.792;2023-02-28T12:07:59;4.70;30.20
2657;DHT22;1338;48.176;11.792;2023-02-28T12:10:30;4.20;99.90
2657;DHT22;1338;48.176;11.792;2023-02-28T12:13:13;4.40;99.90
2657;DHT22;1338;48.176;11.792;2023-02-28T12:16:04;4.10;99.90
2657;DHT22;1338;48.176;11.792;2023-02-28T12:18:47;4.10;99.90
2657;DHT22;1338;48.176;11.792;2023-02-28T12:21:27;4.50;99.90
2657;DHT22;1338;48.176;11.792;2023-02-28T12:24:08;4.30;99.90
2657;DHT22;1338;48.176;11.792;2023-02-28T12:26:45;4.40;99.90
2657;DHT22;1338;48.176;11.792;2023-02-28T12:29:17;4.30;99.90
2657;DHT22;1338;48.176;11.792;2023-02-28T12:31:49;4.40;53.10
2657;DHT22;1338;48.176;11.792;2023-02-28T12:34:22;4.50;24.80
2657;DHT22;1338;48.176;11.792;2023-02-28T12:36:56;4.50;19.20
2657;DHT22;1338;48.176;11.792;2023-02-28T12:39:29;4.50;17.40
2657;DHT22;1338;48.176;11.792;2023-02-28T12:42:19;4.80;23.80
2657;DHT22;1338;48.176;11.792;2023-02-28T12:44:52;4.50;32.40
2657;DHT22;1338;48.176;11.792;2023-02-28T12:47:22;4.70;24.40
2657;DHT22;1338;48.176;11.792;2023-02-28T12:49:55;5.10;9.00
2657;DHT22;1338;48.176;11.792;2023-02-28T12:52:37;5.40;3.10
2657;DHT22;1338;48.176;11.792;2023-02-28T12:55:14;4.50;1.00
2657;DHT22;1338;48.176;11.792;2023-02-28T12:57:49;5.10;1.00
2657;DHT22;1338;48.176;11.792;2023-02-28T13:00:22;4.90;1.00
2657;DHT22;1338;48.176;11.792;2023-02-28T13:03:26;4.90;1.00
2657;DHT22;1338;48.176;11.792;2023-02-28T13:06:10;5.10;1.00
2657;DHT22;1338;48.176;11.792;2023-02-28T13:09:02;6.20;1.00
2657;DHT22;1338;48.176;11.792;2023-02-28T13:11:32;6.60;1.00
2657;DHT22;1338;48.176;11.792;2023-02-28T13:14:04;7.30;1.00
2657;DHT22;1338;48.176;11.792;2023-02-28T13:16:54;6.20;1.00
2657;DHT22;1338;48.176;11.792;2023-02-28T13:19:25;5.70;1.00
2657;DHT22;1338;48.176;11.792;2023-02-28T13:21:54;6.00;1.00
2657;DHT22;1338;48.176;11.792;2023-02-28T13:24:46;6.10;1.00
2657;DHT22;1338;48.176;11.792;2023-02-28T13:27:23;6.20;1.00
2657;DHT22;1338;48.176;11.792;2023-02-28T13:29:53;4.60;1.00
2657;DHT22;1338;48.176;11.792;2023-02-28T13:32:41;5.50;1.00
2657;DHT22;1338;48.176;11.792;2023-02-28T13:35:35;5.40;1.00
2657;DHT22;1338;48.176;11.792;2023-02-28T13:44:05;6.00;1.00
2657;DHT22;1338;48.176;11.792;2023-02-28T13:46:36;5.80;1.00
2657;DHT22;1338;48.176;11.792;2023-02-28T13:49:23;5.30;1.00
2657;DHT22;1338;48.176;11.792;2023-02-28T13:51:55;6.10;1.00
2657;DHT22;1338;48.176;11.792;2023-02-28T13:54:42;6.10;1.00
2657;DHT22;1338;48.176;11.792;2023-02-28T13:57:23;5.40;1.00
2657;DHT22;1338;48.176;11.792;2023-02-28T14:00:06;5.50;1.00
2657;DHT22;1338;48.176;11.792;2023-02-28T14:02:51;5.50;1.00
2657;DHT22;1338;48.176;11.792;2023-02-28T14:05:21;5.30;1.00
2657;DHT22;1338;48.176;11.792;2023-02-28T14:07:56;5.80;1.00
2657;DHT22;1338;48.176;11.792;2023-02-28T14:10:27;5.70;1.00
2657;DHT22;1338;48.176;11.792;2023-02-28T14:13:02;6.60;1.00
2657;DHT22;1338;48.176;11.792;2023-02-28T14:15:56;5.90;1.00
2657;DHT22;1338;48.176;11.792;2023-02-28T14:18:28;4.90;1.00
2657;DHT22;1338;48.176;11.792;2023-02-28T14:21:14;5.10;1.00
2657;DHT22;1338;48.176;11.792;2023-02-28T14:27:15;4.80;1.00
2657;DHT22;1338;48.176;11.792;2023-02-28T14:30:19;4.60;1.00
2657;DHT22;1338;48.176;11.792;2023-02-28T14:33:05;4.80;1.00
2657;DHT22;1338;48.176;11.792;2023-02-28T14:35:54;4.50;1.00
2657;DHT22;1338;48.176;11.792;2023-02-28T14:38:29;5.10;1.00
2657;DHT22;1338;48.176;11.792;2023-02-28T14:41:01;5.50;1.00
2657;DHT22;1338;48.176;11.792;2023-02-28T14:43:31;6.00;1.00
2657;DHT22;1338;48.176;11.792;2023-02-28T14:46:00;6.00;1.00
2657;DHT22;1338;48.176;11.792;2023-02-28T14:48:30;5.40;1.00
2657;DHT22;1338;48.176;11.792;2023-02-28T14:50:59;5.80;1.00
2657;DHT22;1338;48.176;11.792;2023-02-28T14:53:30;5.70;1.00
2657;DHT22;1338;48.176;11.792;2023-02-28T14:55:59;5.90;1.00
2657;DHT22;1338;48.176;11.792;2023-02-28T14:58:28;6.90;1.00
2657;DHT22;1338;48.176;11.792;2023-02-28T15:00:58;5.80;1.00
2657;DHT22;1338;48.176;11.792;2023-02-28T15:03:32;7.10;1.00
2657;DHT22;1338;48.176;11.792;2023-02-28T15:06:02;6.60;1.00
2657;DHT22;1338;48.176;11.792;2023-02-28T15:08:31;6.90;1.00
2657;DHT22;1338;48.176;11.792;2023-02-28T15:11:04;5.90;1.00
2657;DHT22;1338;48.176;11.792;2023-02-28T15:13:37;6.10;1.00
2657;DHT22;1338;48.176;11.792;2023-02-28T15:16:08;6.10;1.00
2657;DHT22;1338;48.176;11.792;2023-02-28T15:18:44;5.80;1.00
2657;DHT22;1338;48.176;11.792;2023-02-28T15:21:15;5.90;1.00
2657;DHT22;1338;48.176;11.792;2023-02-28T15:23:46;6.20;1.00
2657;DHT22;1338;48.176;11.792;2023-02-28T15:26:19;6.30;1.00
2657;DHT22;1338;48.176;11.792;2023-02-28T15:28:50;5.70;1.00
2657;DHT22;1338;48.176;11.792;2023-02-28T15:31:24;5.30;1.00
2657;DHT22;1338;48.176;11.792;2023-02-28T15:33:57;5.90;1.00
2657;DHT22;1338;48.176;11.792;2023-02-28T15:36:28;6.30;1.00
2657;DHT22;1338;48.176;11.792;2023-02-28T15:38:58;5.30;1.00
2657;DHT22;1338;48.176;11.792;2023-02-28T15:41:41;5.90;1.00
2657;DHT22;1338;48.176;11.792;2023-02-28T15:44:25;6.10;1.00
2657;DHT22;1338;48.176;11.792;2023-02-28T15:47:00;5.40;1.00
2657;DHT22;1338;48.176;11.792;2023-02-28T15:49:38;5.20;1.00
2657;DHT22;1338;48.176;11.792;2023-02-28T15:52:14;5.20;1.00
2657;DHT22;1338;48.176;11.792;2023-02-28T15:54:45;5.00;1.00
2657;DHT22;1338;48.176;11.792;2023-02-28T15:57:15;4.50;1.00
2657;DHT22;1338;48.176;11.792;2023-02-28T15:59:50;4.20;1.00
2657;DHT22;1338;48.176;11.792;2023-02-28T16:02:21;4.30;1.00
2657;DHT22;1338;48.176;11.792;2023-02-28T16:07:43;4.10;1.00
2657;DHT22;1338;48.176;11.792;2023-02-28T16:10:12;4.00;1.00
2657;DHT22;1338;48.176;11.792;2023-02-28T16:12:41;4.00;1.00
2657;DHT22;1338;48.176;11.792;2023-02-28T16:15:19;3.80;1.00
2657;DHT22;1338;48.176;11.792;2023-02-28T16:17:48;3.70;1.00
2657;DHT22;1338;48.176;11.792;2023-02-28T16:20:20;3.90;1.00
2657;DHT22;1338;48.176;11.792;2023-02-28T16:22:49;4.00;1.00
2657;DHT22;1338;48.176;11.792;2023-02-28T16:25:19;3.90;1.00
2657;DHT22;1338;48.176;11.792;2023-02-28T16:27:50;3.80;1.00
2657;DHT22;1338;48.176;11.792;2023-02-28T16:30:22;3.80;1.00
2657;DHT22;1338;48.176;11.792;2023-02-28T16:32:52;3.50;1.00
2657;DHT22;1338;48.176;11.792;2023-02-28T16:35:24;3.60;1.00
2657;DHT22;1338;48.176;11.792;2023-02-28T16:37:53;3.20;1.00
2657;DHT22;1338;48.176;11.792;2023-02-28T16:40:24;3.30;1.00
2657;DHT22;1338;48.176;11.792;2023-02-28T16:42:55;3.30;1.00
2657;DHT22;1338;48.176;11.792;2023-02-28T16:45:26;3.20;1.00
2657;DHT22;1338;48.176;11.792;2023-02-28T16:47:55;3.10;1.00
2657;DHT22;1338;48.176;11.792;2023-02-28T16:50:26;2.90;1.00
2657;DHT22;1338;48.176;11.792;2023-02-28T16:52:55;2.70;1.00
2657;DHT22;1338;48.176;11.792;2023-02-28T16:55:25;2.50;1.00